Ginga — JJ4054 — position and weather

sailwx.info

Track history (hours):
 
Tides and Currents Weather Stations Pressure Air Temp Water Temp Dewpoint Dewpoint Depression Visibility Wind Speed Wind Dir Waves Ship Positions

Ginga

Last reported at 2014-Aug-29 07:33 UTC. Time now 2014-Aug-29 10:21 UTC.
Position N 34°37' E 135°03'.

Length 28 m; draft 1.6 m.

Type: Other ship. MMSI: 431301704.

Date/timePositionNaut miles runAvg speedWind from/ knotsBaromVisibWave heightAir tempDewpointWater temp
2014-Aug-29 07:33N 34°37' E 135°03'1 0.8
2014-Aug-29 06:33N 34°37' E 135°03'5 5.1
2014-Aug-29 05:33N 34°36' E 135°09'3 2.9
2014-Aug-29 04:33N 34°39' E 135°09'0 0.0
2014-Aug-28 22:07N 34°39' E 135°09'611.1
2014-Aug-28 21:34N 34°37' E 135°02'3 3.4
2014-Aug-28 20:33N 34°35' E 135°06'5 4.7
2014-Aug-28 19:33N 34°35' E 135°11'  
2014-Aug-26 08:22N 34°39' E 135°09'1214.1
2014-Aug-26 07:33N 34°29' E 135°03'11 8.9
2014-Aug-26 06:22N 34°19' E 134°59'1214.6
2014-Aug-26 05:33N 34°29' E 135°06'7 7.5
2014-Aug-26 04:33N 34°36' E 135°02'3 0.1
2014-Aug-24 23:32N 34°38' E 134°59'8 8.0
2014-Aug-24 22:33N 34°34' E 135°07'2411.2
2014-Aug-24 20:23N 34°10' E 134°59'19 1.3
2014-Aug-24 06:30N 34°29' E 135°01'7 7.0
2014-Aug-24 05:26N 34°36' E 134°57'3 3.0
2014-Aug-24 04:34N 34°37' E 135°00'3 2.7
2014-Aug-24 03:30N 34°36' E 134°57'1111.5
2014-Aug-24 02:33N 34°39' E 135°10'1 0.0
2014-Aug-23 00:14N 34°39' E 135°10'913.4
2014-Aug-22 23:33N 34°38' E 134°59'7 7.0
2014-Aug-22 22:33N 34°35' E 135°06'5 5.0
2014-Aug-22 21:34N 34°39' E 135°09'0 0.0
2014-Aug-22 00:17N 34°39' E 135°10'3 3.6
2014-Aug-21 23:33N 34°41' E 135°12'1010.1
2014-Aug-21 22:33N 34°38' E 134°60'6 6.1
2014-Aug-21 21:33N 34°35' E 135°06'5 4.8
2014-Aug-21 20:33N 34°39' E 135°09'0 0.0
2014-Aug-21 05:33N 34°39' E 135°09'1311.6
2014-Aug-21 04:23N 34°26' E 135°04'8 7.8
2014-Aug-21 03:23N 34°20' E 134°59'1113.4
2014-Aug-21 02:33N 34°27' E 135°09'1211.7
2014-Aug-21 01:31N 34°33' E 135°22'2 1.9
2014-Aug-21 00:32N 34°34' E 135°24'1212.6
2014-Aug-20 23:33N 34°39' E 135°10'1 0.1
2014-Aug-20 13:19N 34°39' E 135°09'6 7.9
2014-Aug-20 12:33N 34°35' E 135°04'6 5.7
2014-Aug-20 11:29N 34°37' E 134°57'1111.6
2014-Aug-20 10:33N 34°39' E 135°09'4 0.5
2014-Aug-20 02:33N 34°37' E 135°14'9 8.8
2014-Aug-20 01:33N 34°34' E 135°24'6 6.3
2014-Aug-20 00:33N 34°32' E 135°16'1412.4
2014-Aug-19 23:27N 34°23' E 135°04'8 0.7
2014-Aug-19 12:07N 34°22' E 134°55'916.7
2014-Aug-19 11:33N 34°30' E 135°01'7 7.4
2014-Aug-19 10:33N 34°36' E 134°56'  
Track history (hours):
 
Tides and Currents Weather Stations Pressure Air Temp Water Temp Dewpoint Dewpoint Depression Visibility Wind Speed Wind Dir Waves Ship Positions

Ginga

Last reported at 2014-Aug-29 07:33 UTC. Time now 2014-Aug-29 10:21 UTC.
Position N 34°37' E 135°03'.

Length 28 m; draft 1.6 m.

Type: Other ship. MMSI: 431301704.

Date/timePositionNaut miles runAvg speedWind from/ knotsBaromVisibWave heightAir tempDewpointWater temp
2014-Aug-29 07:33N 34°37' E 135°03'1 0.8
2014-Aug-29 06:33N 34°37' E 135°03'5 5.1
2014-Aug-29 05:33N 34°36' E 135°09'3 2.9
2014-Aug-29 04:33N 34°39' E 135°09'0 0.0
2014-Aug-28 22:07N 34°39' E 135°09'611.1
2014-Aug-28 21:34N 34°37' E 135°02'3 3.4
2014-Aug-28 20:33N 34°35' E 135°06'5 4.7
2014-Aug-28 19:33N 34°35' E 135°11'  
2014-Aug-26 08:22N 34°39' E 135°09'1214.1
2014-Aug-26 07:33N 34°29' E 135°03'11 8.9
2014-Aug-26 06:22N 34°19' E 134°59'1214.6
2014-Aug-26 05:33N 34°29' E 135°06'7 7.5
2014-Aug-26 04:33N 34°36' E 135°02'3 0.1
2014-Aug-24 23:32N 34°38' E 134°59'8 8.0
2014-Aug-24 22:33N 34°34' E 135°07'2411.2
2014-Aug-24 20:23N 34°10' E 134°59'19 1.3
2014-Aug-24 06:30N 34°29' E 135°01'7 7.0
2014-Aug-24 05:26N 34°36' E 134°57'3 3.0
2014-Aug-24 04:34N 34°37' E 135°00'3 2.7
2014-Aug-24 03:30N 34°36' E 134°57'1111.5
2014-Aug-24 02:33N 34°39' E 135°10'1 0.0
2014-Aug-23 00:14N 34°39' E 135°10'913.4
2014-Aug-22 23:33N 34°38' E 134°59'7 7.0
2014-Aug-22 22:33N 34°35' E 135°06'5 5.0
2014-Aug-22 21:34N 34°39' E 135°09'0 0.0
2014-Aug-22 00:17N 34°39' E 135°10'3 3.6
2014-Aug-21 23:33N 34°41' E 135°12'1010.1
2014-Aug-21 22:33N 34°38' E 134°60'6 6.1
2014-Aug-21 21:33N 34°35' E 135°06'5 4.8
2014-Aug-21 20:33N 34°39' E 135°09'0 0.0
2014-Aug-21 05:33N 34°39' E 135°09'1311.6
2014-Aug-21 04:23N 34°26' E 135°04'8 7.8
2014-Aug-21 03:23N 34°20' E 134°59'1113.4
2014-Aug-21 02:33N 34°27' E 135°09'1211.7
2014-Aug-21 01:31N 34°33' E 135°22'2 1.9
2014-Aug-21 00:32N 34°34' E 135°24'1212.6
2014-Aug-20 23:33N 34°39' E 135°10'1 0.1
2014-Aug-20 13:19N 34°39' E 135°09'6 7.9
2014-Aug-20 12:33N 34°35' E 135°04'6 5.7
2014-Aug-20 11:29N 34°37' E 134°57'1111.6
2014-Aug-20 10:33N 34°39' E 135°09'4 0.5
2014-Aug-20 02:33N 34°37' E 135°14'9 8.8
2014-Aug-20 01:33N 34°34' E 135°24'6 6.3
2014-Aug-20 00:33N 34°32' E 135°16'1412.4
2014-Aug-19 23:27N 34°23' E 135°04'8 0.7
2014-Aug-19 12:07N 34°22' E 134°55'916.7
2014-Aug-19 11:33N 34°30' E 135°01'7 7.4
2014-Aug-19 10:33N 34°36' E 134°56'  

Dump ship's entire track history